Del Norte — WDC2280 — position and weather

sailwx.info

Track history (hours):
 
Tides and Currents Weather Stations Pressure Air Temp Water Temp Dewpoint Dewpoint Depression Visibility Wind Speed Wind Dir Waves Ship Positions

Del Norte

Owner: Golden Gate Bridge,Hwy & Transportation District, Larkspur, CA. More information available from US FCC via Universal Licensing System and Coast Guard Vessel Documentation Center.

Last reported at 2015-Jan-25 03:34 UTC. Time now 2015-Jan-25 20:23 UTC.
Position N 37°49' W 122°23'.

Length 48 m.

Type: High speed craft. MMSI: 366990520.

Date/timePositionNaut miles runAvg speedWind from/ knotsBaromVisibWave heightAir tempDewpointWater temp
2015-Jan-25 03:34N 37°49' W 122°23'5 4.7
2015-Jan-25 02:33N 37°51' W 122°29'5 5.4
2015-Jan-25 01:34N 37°48' W 122°24'5 5.4
2015-Jan-25 00:34N 37°51' W 122°29'5 4.5
2015-Jan-24 23:34N 37°50' W 122°23'5 4.5
2015-Jan-24 22:34N 37°51' W 122°29'5 5.5
2015-Jan-24 21:34N 37°57' W 122°31'10 0.7
2015-Jan-24 05:33N 37°48' W 122°24'8 7.6
2015-Jan-24 04:34N 37°55' W 122°27'3 3.1
2015-Jan-24 03:34N 37°57' W 122°30'1010.3
2015-Jan-24 02:33N 37°48' W 122°24'1010.4
2015-Jan-24 01:33N 37°57' W 122°30'8 8.1
2015-Jan-24 00:34N 37°50' W 122°24'3 2.5
2015-Jan-23 23:34N 37°48' W 122°24'1010.4
2015-Jan-23 22:34N 37°57' W 122°30'9 8.9
2015-Jan-23 21:34N 37°50' W 122°24'9 8.9
2015-Jan-23 20:33N 37°57' W 122°30'7 7.2
2015-Jan-23 19:33N 37°51' W 122°25'6 6.2
2015-Jan-23 18:34N 37°56' W 122°29'4 3.8
2015-Jan-23 17:34N 37°53' W 122°26'6 5.9
2015-Jan-23 16:34N 37°48' W 122°24'8 8.3
2015-Jan-23 15:34N 37°55' W 122°28'3 2.6
2015-Jan-23 14:33N 37°57' W 122°31'0 0.0
2015-Jan-23 01:33N 37°57' W 122°31'  
2015-Jan-20 03:33N 37°57' W 122°31'0 0.0
2015-Jan-20 02:33N 37°57' W 122°31'1110.4
2015-Jan-20 01:33N 37°48' W 122°24'7 6.9
2015-Jan-20 00:34N 37°54' W 122°27'7 6.7
2015-Jan-19 23:33N 37°48' W 122°24'0 0.0
2015-Jan-19 22:33N 37°48' W 122°24'8 8.4
2015-Jan-19 21:34N 37°55' W 122°28'2 2.4
2015-Jan-19 20:34N 37°57' W 122°30'0 0.0
2015-Jan-19 19:34N 37°57' W 122°30'0 0.0
2015-Jan-19 18:34N 37°57' W 122°30'4 3.5
2015-Jan-19 17:33N 37°55' W 122°27'2 1.8
2015-Jan-19 16:34N 37°56' W 122°29'9 9.0
2015-Jan-19 15:33N 37°48' W 122°24'1010.5
2015-Jan-19 14:33N 37°57' W 122°30'10 0.9
2015-Jan-19 03:33N 37°49' W 122°23'1 1.4
2015-Jan-19 02:33N 37°48' W 122°24'0 0.0
2015-Jan-19 01:33N 37°48' W 122°24'1010.5
2015-Jan-19 00:34N 37°57' W 122°30'1010.4
2015-Jan-18 23:33N 37°48' W 122°24'0 0.0
2015-Jan-18 22:33N 37°48' W 122°24'1010.5
2015-Jan-18 21:33N 37°57' W 122°30'1010.5
2015-Jan-18 20:33N 37°48' W 122°24'1010.4
2015-Jan-18 19:33N 37°57' W 122°30'9 0.6
2015-Jan-18 03:33N 37°50' W 122°23'2 1.8
2015-Jan-18 02:33N 37°48' W 122°24'0 0.0
2015-Jan-18 01:33N 37°48' W 122°24'1010.5
2015-Jan-18 00:33N 37°57' W 122°30'1010.5
2015-Jan-17 23:33N 37°48' W 122°24'0 0.0
2015-Jan-17 22:33N 37°48' W 122°24'1010.5
2015-Jan-17 21:33N 37°57' W 122°30'1010.5
2015-Jan-17 20:33N 37°48' W 122°24'1010.5
2015-Jan-17 19:33N 37°57' W 122°30'0 0.0
2015-Jan-17 06:12N 37°57' W 122°30'1016.1
2015-Jan-17 05:33N 37°48' W 122°24'10 9.6
2015-Jan-17 04:34N 37°56' W 122°29'1 0.9
2015-Jan-17 03:33N 37°57' W 122°30'1010.3
2015-Jan-17 02:33N 37°48' W 122°23'1010.5
2015-Jan-17 01:33N 37°57' W 122°30'10 9.7
2015-Jan-17 00:34N 37°49' W 122°23'1 0.9
2015-Jan-16 23:33N 37°48' W 122°24'1010.5
2015-Jan-16 22:33N 37°57' W 122°31'9 9.0
2015-Jan-16 21:34N 37°50' W 122°23'9 9.0
2015-Jan-16 20:33N 37°57' W 122°31'8 8.3
2015-Jan-16 19:34N 37°50' W 122°24'8 7.5
2015-Jan-16 18:34N 37°56' W 122°30'5 4.6
2015-Jan-16 17:34N 37°53' W 122°26'5 5.3
2015-Jan-16 16:34N 37°48' W 122°24'8 8.1
2015-Jan-16 15:33N 37°55' W 122°27'3 0.2
2015-Jan-15 22:29N 37°57' W 122°31'  
Track history (hours):
 
Tides and Currents Weather Stations Pressure Air Temp Water Temp Dewpoint Dewpoint Depression Visibility Wind Speed Wind Dir Waves Ship Positions

Del Norte

Owner: Golden Gate Bridge,Hwy & Transportation District, Larkspur, CA. More information available from US FCC via Universal Licensing System and Coast Guard Vessel Documentation Center.

Last reported at 2015-Jan-25 03:34 UTC. Time now 2015-Jan-25 20:23 UTC.
Position N 37°49' W 122°23'.

Length 48 m.

Type: High speed craft. MMSI: 366990520.

Date/timePositionNaut miles runAvg speedWind from/ knotsBaromVisibWave heightAir tempDewpointWater temp
2015-Jan-25 03:34N 37°49' W 122°23'5 4.7
2015-Jan-25 02:33N 37°51' W 122°29'5 5.4
2015-Jan-25 01:34N 37°48' W 122°24'5 5.4
2015-Jan-25 00:34N 37°51' W 122°29'5 4.5
2015-Jan-24 23:34N 37°50' W 122°23'5 4.5
2015-Jan-24 22:34N 37°51' W 122°29'5 5.5
2015-Jan-24 21:34N 37°57' W 122°31'10 0.7
2015-Jan-24 05:33N 37°48' W 122°24'8 7.6
2015-Jan-24 04:34N 37°55' W 122°27'3 3.1
2015-Jan-24 03:34N 37°57' W 122°30'1010.3
2015-Jan-24 02:33N 37°48' W 122°24'1010.4
2015-Jan-24 01:33N 37°57' W 122°30'8 8.1
2015-Jan-24 00:34N 37°50' W 122°24'3 2.5
2015-Jan-23 23:34N 37°48' W 122°24'1010.4
2015-Jan-23 22:34N 37°57' W 122°30'9 8.9
2015-Jan-23 21:34N 37°50' W 122°24'9 8.9
2015-Jan-23 20:33N 37°57' W 122°30'7 7.2
2015-Jan-23 19:33N 37°51' W 122°25'6 6.2
2015-Jan-23 18:34N 37°56' W 122°29'4 3.8
2015-Jan-23 17:34N 37°53' W 122°26'6 5.9
2015-Jan-23 16:34N 37°48' W 122°24'8 8.3
2015-Jan-23 15:34N 37°55' W 122°28'3 2.6
2015-Jan-23 14:33N 37°57' W 122°31'0 0.0
2015-Jan-23 01:33N 37°57' W 122°31'  
2015-Jan-20 03:33N 37°57' W 122°31'0 0.0
2015-Jan-20 02:33N 37°57' W 122°31'1110.4
2015-Jan-20 01:33N 37°48' W 122°24'7 6.9
2015-Jan-20 00:34N 37°54' W 122°27'7 6.7
2015-Jan-19 23:33N 37°48' W 122°24'0 0.0
2015-Jan-19 22:33N 37°48' W 122°24'8 8.4
2015-Jan-19 21:34N 37°55' W 122°28'2 2.4
2015-Jan-19 20:34N 37°57' W 122°30'0 0.0
2015-Jan-19 19:34N 37°57' W 122°30'0 0.0
2015-Jan-19 18:34N 37°57' W 122°30'4 3.5
2015-Jan-19 17:33N 37°55' W 122°27'2 1.8
2015-Jan-19 16:34N 37°56' W 122°29'9 9.0
2015-Jan-19 15:33N 37°48' W 122°24'1010.5
2015-Jan-19 14:33N 37°57' W 122°30'10 0.9
2015-Jan-19 03:33N 37°49' W 122°23'1 1.4
2015-Jan-19 02:33N 37°48' W 122°24'0 0.0
2015-Jan-19 01:33N 37°48' W 122°24'1010.5
2015-Jan-19 00:34N 37°57' W 122°30'1010.4
2015-Jan-18 23:33N 37°48' W 122°24'0 0.0
2015-Jan-18 22:33N 37°48' W 122°24'1010.5
2015-Jan-18 21:33N 37°57' W 122°30'1010.5
2015-Jan-18 20:33N 37°48' W 122°24'1010.4
2015-Jan-18 19:33N 37°57' W 122°30'9 0.6
2015-Jan-18 03:33N 37°50' W 122°23'2 1.8
2015-Jan-18 02:33N 37°48' W 122°24'0 0.0
2015-Jan-18 01:33N 37°48' W 122°24'1010.5
2015-Jan-18 00:33N 37°57' W 122°30'1010.5
2015-Jan-17 23:33N 37°48' W 122°24'0 0.0
2015-Jan-17 22:33N 37°48' W 122°24'1010.5
2015-Jan-17 21:33N 37°57' W 122°30'1010.5
2015-Jan-17 20:33N 37°48' W 122°24'1010.5
2015-Jan-17 19:33N 37°57' W 122°30'0 0.0
2015-Jan-17 06:12N 37°57' W 122°30'1016.1
2015-Jan-17 05:33N 37°48' W 122°24'10 9.6
2015-Jan-17 04:34N 37°56' W 122°29'1 0.9
2015-Jan-17 03:33N 37°57' W 122°30'1010.3
2015-Jan-17 02:33N 37°48' W 122°23'1010.5
2015-Jan-17 01:33N 37°57' W 122°30'10 9.7
2015-Jan-17 00:34N 37°49' W 122°23'1 0.9
2015-Jan-16 23:33N 37°48' W 122°24'1010.5
2015-Jan-16 22:33N 37°57' W 122°31'9 9.0
2015-Jan-16 21:34N 37°50' W 122°23'9 9.0
2015-Jan-16 20:33N 37°57' W 122°31'8 8.3
2015-Jan-16 19:34N 37°50' W 122°24'8 7.5
2015-Jan-16 18:34N 37°56' W 122°30'5 4.6
2015-Jan-16 17:34N 37°53' W 122°26'5 5.3
2015-Jan-16 16:34N 37°48' W 122°24'8 8.1
2015-Jan-16 15:33N 37°55' W 122°27'3 0.2
2015-Jan-15 22:29N 37°57' W 122°31'  

Dump ship's entire track history